Terminal Aerodrome Forecast
Issued by NWS

Home | Current Version | Previous Version | Text Only | Print | Product List | Glossary On
Versions: 1 2 3 4 5 6 7 8 9 10 11 12 13 14 15 16 17 18 19 20
784
FTUS44 KTSA 180305 AAA
TAFFYV
TAF AMD
KFYV 180305Z 1803/1824 00000KT P6SM OVC011
     FM180800 00000KT 4SM BR BKN007
     FM181600 14003KT P6SM BKN015=

USA.gov is the U.S. government's official web portal to all federal, state and local government web resources and services.